createdAt,value
2022-08-03T00:00:51.745Z,19.69
2022-08-03T00:01:53.251Z,19.63
2022-08-03T00:02:54.758Z,19.58
2022-08-03T00:03:56.254Z,19.50
2022-08-03T00:04:57.748Z,19.57
2022-08-03T00:06:04.052Z,19.58
2022-08-03T00:07:06.545Z,19.58
2022-08-03T00:08:07.966Z,19.56
2022-08-03T00:09:10.814Z,19.62
2022-08-03T00:10:13.415Z,19.65
2022-08-03T00:11:16.222Z,19.80
2022-08-03T00:12:18.076Z,19.84
2022-08-03T00:13:19.842Z,19.80
2022-08-03T00:14:21.283Z,19.76
2022-08-03T00:15:22.936Z,19.71
2022-08-03T00:16:24.551Z,19.67
2022-08-03T00:17:26.015Z,19.64
2022-08-03T00:18:27.516Z,19.58
2022-08-03T00:19:29.002Z,19.58
2022-08-03T00:20:30.436Z,19.56
2022-08-03T00:21:31.964Z,19.57
2022-08-03T00:22:35.044Z,19.61
2022-08-03T00:23:52.486Z,19.59
2022-08-03T00:24:54.271Z,19.48
2022-08-03T00:25:55.822Z,19.44
2022-08-03T00:26:58.603Z,19.43
2022-08-03T00:28:00.101Z,19.43
2022-08-03T00:29:01.532Z,19.49
2022-08-03T00:30:03.849Z,19.47
2022-08-03T00:31:05.274Z,19.51
2022-08-03T00:32:08.691Z,19.57
2022-08-03T00:33:13.520Z,19.52
2022-08-03T00:34:16.055Z,19.52
2022-08-03T00:35:27.345Z,19.55
2022-08-03T00:36:38.078Z,19.51
2022-08-03T00:37:41.681Z,19.52
2022-08-03T00:38:43.338Z,19.66
2022-08-03T00:39:44.777Z,19.64
2022-08-03T00:40:46.347Z,19.57
2022-08-03T00:41:47.772Z,19.60
2022-08-03T00:42:53.807Z,19.60
2022-08-03T00:43:55.250Z,19.62
2022-08-03T00:44:56.711Z,19.64
2022-08-03T00:45:58.164Z,19.63
2022-08-03T00:46:59.623Z,19.57
2022-08-03T00:48:02.444Z,19.58
2022-08-03T00:49:04.022Z,19.56
2022-08-03T00:50:06.453Z,19.54
2022-08-03T00:51:08.140Z,19.48
2022-08-03T00:52:11.203Z,19.46
2022-08-03T00:53:12.793Z,19.46
2022-08-03T00:54:14.949Z,19.48
2022-08-03T00:55:16.958Z,19.48
2022-08-03T00:56:18.661Z,19.54
2022-08-03T00:57:20.827Z,19.57
2022-08-03T00:58:23.947Z,19.49
2022-08-03T00:59:25.380Z,19.50
2022-08-03T01:00:27.758Z,19.58
2022-08-03T01:01:32.318Z,19.60
2022-08-03T01:02:34.273Z,19.68
2022-08-03T01:03:35.751Z,19.74
2022-08-03T01:04:37.188Z,19.78
2022-08-03T01:05:55.788Z,19.91
2022-08-03T01:07:03.502Z,19.95
2022-08-03T01:08:12.069Z,19.85
2022-08-03T01:09:22.126Z,19.89
2022-08-03T01:10:28.808Z,19.88
2022-08-03T01:11:59.719Z,19.95
2022-08-03T01:13:59.203Z,19.81
2022-08-03T01:14:38.480Z,19.78
2022-08-03T01:15:46.262Z,19.78
2022-08-03T01:16:55.998Z,19.80
2022-08-03T01:18:02.947Z,19.64
2022-08-03T01:19:24.183Z,19.61
2022-08-03T01:20:29.630Z,19.49
2022-08-03T01:21:33.996Z,19.48
2022-08-03T01:23:23.610Z,19.40
2022-08-03T01:24:37.710Z,19.37
2022-08-03T01:25:59.672Z,19.32
2022-08-03T01:27:08.621Z,19.42
2022-08-03T01:28:25.336Z,19.47
2022-08-03T01:29:46.416Z,19.49
2022-08-03T01:30:49.797Z,19.46
2022-08-03T01:32:58.715Z,19.47
2022-08-03T01:33:22.783Z,19.50
2022-08-03T01:34:28.138Z,19.48
2022-08-03T01:35:38.459Z,19.58
2022-08-03T01:36:44.669Z,19.50
2022-08-03T01:37:52.024Z,19.44
2022-08-03T01:38:56.061Z,19.43
2022-08-03T01:40:01.006Z,19.49
2022-08-03T01:41:05.853Z,19.44
2022-08-03T01:42:10.197Z,19.47
2022-08-03T01:44:26.218Z,19.47
2022-08-03T01:44:42.392Z,19.49
2022-08-03T01:45:44.613Z,19.45
2022-08-03T01:46:48.855Z,19.48
2022-08-03T01:47:52.732Z,19.55
2022-08-03T01:48:56.244Z,19.60
2022-08-03T01:50:00.528Z,19.59
2022-08-03T01:51:02.665Z,19.63
2022-08-03T01:52:05.633Z,19.66
2022-08-03T01:53:08.912Z,19.72
2022-08-03T01:54:12.570Z,19.77
2022-08-03T01:55:19.061Z,19.80
2022-08-03T01:56:24.225Z,19.84
2022-08-03T01:57:28.731Z,19.85
2022-08-03T01:58:32.165Z,19.84
2022-08-03T01:59:35.457Z,19.85
2022-08-03T02:00:40.213Z,19.84
2022-08-03T02:02:19.566Z,19.83
2022-08-03T02:03:06.978Z,19.83
2022-08-03T02:04:09.684Z,19.83
2022-08-03T02:05:12.618Z,19.86
2022-08-03T02:07:01.334Z,19.87
2022-08-03T02:07:40.457Z,19.86
2022-08-03T02:08:44.688Z,19.85
2022-08-03T02:09:51.504Z,19.84
2022-08-03T02:10:57.008Z,19.89
2022-08-03T02:11:59.136Z,19.89
2022-08-03T02:13:01.919Z,19.90
2022-08-03T02:14:05.830Z,19.92
2022-08-03T02:15:09.591Z,19.91
2022-08-03T02:16:14.151Z,19.83
2022-08-03T02:17:16.373Z,19.68
2022-08-03T02:18:20.079Z,19.61
2022-08-03T02:19:24.817Z,19.56
2022-08-03T02:20:28.379Z,19.49
2022-08-03T02:21:57.042Z,19.55
2022-08-03T02:22:55.131Z,19.44
2022-08-03T02:23:56.675Z,19.45
2022-08-03T02:24:58.132Z,19.46
2022-08-03T02:26:04.557Z,19.44
2022-08-03T02:27:13.673Z,19.43
2022-08-03T02:28:18.121Z,19.44
2022-08-03T02:29:39.492Z,19.41
2022-08-03T02:30:45.831Z,19.37
2022-08-03T02:31:58.152Z,19.35
2022-08-03T02:33:01.617Z,19.33
2022-08-03T02:34:08.287Z,19.34
2022-08-03T02:35:13.016Z,19.35
2022-08-03T02:36:15.949Z,19.35
2022-08-03T02:37:19.194Z,19.33
2022-08-03T02:38:25.998Z,19.30
2022-08-03T02:39:31.180Z,19.27
2022-08-03T02:40:33.655Z,19.34
2022-08-03T02:41:37.985Z,19.33
2022-08-03T02:42:44.276Z,19.34
2022-08-03T02:44:06.044Z,19.35
2022-08-03T02:45:11.688Z,19.32
2022-08-03T02:46:17.206Z,19.33
2022-08-03T02:47:20.692Z,19.29
2022-08-03T02:48:26.503Z,19.18
2022-08-03T02:49:42.153Z,19.07
2022-08-03T02:50:54.024Z,18.98
2022-08-03T02:51:57.696Z,18.91
2022-08-03T02:53:01.208Z,18.92
2022-08-03T02:54:04.837Z,18.93
2022-08-03T02:55:10.159Z,18.96
2022-08-03T02:56:12.630Z,18.96
2022-08-03T02:57:15.136Z,18.97
2022-08-03T02:58:19.387Z,18.99
2022-08-03T02:59:22.283Z,18.95
2022-08-03T03:00:27.344Z,18.92
2022-08-03T03:01:31.465Z,18.92
2022-08-03T03:02:34.864Z,18.92
2022-08-03T03:03:44.829Z,18.87
2022-08-03T03:05:51.831Z,18.85
2022-08-03T03:06:13.337Z,18.75
2022-08-03T03:07:17.585Z,18.65
2022-08-03T03:08:26.770Z,18.56
2022-08-03T03:09:40.233Z,18.44
2022-08-03T03:10:44.288Z,18.40
2022-08-03T03:11:46.278Z,18.38
2022-08-03T03:12:50.142Z,18.33
2022-08-03T03:13:52.746Z,18.27
2022-08-03T03:14:54.229Z,18.32
2022-08-03T03:15:57.212Z,18.27
2022-08-03T03:16:59.808Z,18.27
2022-08-03T03:18:03.149Z,18.27
2022-08-03T03:19:05.316Z,18.26
2022-08-03T03:20:08.752Z,18.24
2022-08-03T03:21:10.725Z,18.24
2022-08-03T03:22:13.076Z,18.23
2022-08-03T03:23:15.318Z,18.23
2022-08-03T03:24:17.282Z,18.24
2022-08-03T03:25:20.097Z,18.26
2022-08-03T03:26:21.800Z,18.27
2022-08-03T03:27:23.445Z,18.31
2022-08-03T03:28:25.394Z,18.31
2022-08-03T03:29:27.765Z,18.27
2022-08-03T03:30:29.882Z,18.30
2022-08-03T03:31:31.863Z,18.34
2022-08-03T03:32:33.578Z,18.36
2022-08-03T03:33:37.824Z,18.34
2022-08-03T03:34:39.584Z,18.33
2022-08-03T03:35:42.551Z,18.32
2022-08-03T03:36:44.029Z,18.31
2022-08-03T03:37:45.548Z,18.34
2022-08-03T03:38:47.040Z,18.34
2022-08-03T03:39:48.513Z,18.35
2022-08-03T03:40:50.125Z,18.32
2022-08-03T03:41:52.012Z,18.26
2022-08-03T03:42:53.588Z,18.24
2022-08-03T03:43:55.519Z,18.18
2022-08-03T03:44:57.046Z,18.10
2022-08-03T03:46:01.779Z,18.11
2022-08-03T03:47:03.477Z,18.09
2022-08-03T03:48:05.977Z,18.07
2022-08-03T03:49:09.124Z,18.06
2022-08-03T03:50:10.636Z,18.01
2022-08-03T03:51:12.717Z,17.99
2022-08-03T03:52:16.806Z,17.96
2022-08-03T03:53:18.515Z,17.99
2022-08-03T03:54:20.022Z,17.99
2022-08-03T03:55:21.492Z,18.02
2022-08-03T03:56:23.335Z,18.05
2022-08-03T03:57:24.862Z,18.08
2022-08-03T03:58:26.357Z,18.09
2022-08-03T03:59:27.855Z,18.10
2022-08-03T04:00:29.732Z,18.06
2022-08-03T04:01:31.614Z,18.05
2022-08-03T04:02:33.325Z,18.01
2022-08-03T04:03:35.741Z,18.00
2022-08-03T04:04:39.076Z,17.97
2022-08-03T04:05:44.241Z,17.95
2022-08-03T04:06:47.829Z,17.91
2022-08-03T04:08:00.820Z,17.88
2022-08-03T04:09:03.214Z,17.86
2022-08-03T04:10:14.399Z,17.89
2022-08-03T04:11:20.250Z,17.84
2022-08-03T04:12:32.331Z,17.80
2022-08-03T04:13:37.685Z,17.76
2022-08-03T04:14:40.389Z,17.74
2022-08-03T04:15:42.758Z,17.73
2022-08-03T04:16:48.981Z,17.75
2022-08-03T04:17:53.098Z,17.75
2022-08-03T04:19:00.593Z,17.80
2022-08-03T04:20:04.751Z,17.80
2022-08-03T04:21:11.154Z,17.82
2022-08-03T04:22:17.745Z,17.85
2022-08-03T04:23:22.189Z,17.88
2022-08-03T04:24:26.559Z,17.93
2022-08-03T04:25:32.217Z,17.95
2022-08-03T04:26:36.319Z,17.94
2022-08-03T04:27:41.428Z,17.94
2022-08-03T04:28:44.732Z,17.97
2022-08-03T04:29:49.246Z,17.88
2022-08-03T04:30:53.582Z,17.83
2022-08-03T04:31:59.370Z,17.81
2022-08-03T04:33:02.307Z,17.84
2022-08-03T04:34:04.690Z,17.79
2022-08-03T04:35:08.631Z,17.81
2022-08-03T04:36:14.847Z,17.80
2022-08-03T04:37:26.135Z,17.76
2022-08-03T04:38:29.360Z,17.75
2022-08-03T04:39:32.631Z,17.75
2022-08-03T04:40:36.244Z,17.75
2022-08-03T04:42:07.284Z,17.77
2022-08-03T04:43:02.616Z,17.82
2022-08-03T04:44:05.694Z,17.92
2022-08-03T04:45:11.492Z,18.01
2022-08-03T04:46:14.028Z,18.00
2022-08-03T04:47:16.315Z,18.09
2022-08-03T04:48:19.808Z,18.07
2022-08-03T04:49:21.776Z,18.07
2022-08-03T04:50:25.302Z,18.05
2022-08-03T04:51:27.626Z,18.08
2022-08-03T04:52:29.353Z,18.10
2022-08-03T04:53:30.888Z,18.14
2022-08-03T04:54:39.512Z,18.17
2022-08-03T04:55:40.938Z,18.21
2022-08-03T04:56:42.710Z,18.24
2022-08-03T04:57:44.146Z,18.29
2022-08-03T04:58:45.623Z,18.24
2022-08-03T04:59:47.091Z,18.34
2022-08-03T05:00:48.532Z,18.22
2022-08-03T05:01:50.943Z,18.22
2022-08-03T05:02:52.956Z,18.21
2022-08-03T05:03:54.442Z,18.20
2022-08-03T05:04:55.893Z,18.26
2022-08-03T05:06:09.801Z,18.27
2022-08-03T05:07:13.197Z,18.18
2022-08-03T05:08:14.703Z,18.13
2022-08-03T05:09:16.182Z,18.14
2022-08-03T05:10:37.657Z,18.09
2022-08-03T05:11:39.094Z,18.08
2022-08-03T05:12:40.715Z,18.08
2022-08-03T05:13:42.195Z,18.07
2022-08-03T05:14:43.637Z,18.20
2022-08-03T05:15:45.138Z,18.27
2022-08-03T05:16:46.601Z,18.30
2022-08-03T05:17:48.074Z,18.40
2022-08-03T05:18:49.590Z,18.50
2022-08-03T05:19:51.046Z,18.54
2022-08-03T05:20:52.480Z,18.58
2022-08-03T05:21:55.273Z,18.64
2022-08-03T05:22:56.854Z,18.69
2022-08-03T05:23:58.326Z,18.68
2022-08-03T05:25:01.122Z,18.93
2022-08-03T05:26:02.607Z,18.91
2022-08-03T05:27:04.134Z,18.90
2022-08-03T05:28:05.609Z,18.95
2022-08-03T05:29:07.073Z,18.92
2022-08-03T05:30:30.410Z,19.00
2022-08-03T05:31:31.035Z,19.20
2022-08-03T05:32:32.478Z,19.18
2022-08-03T05:33:33.952Z,19.20
2022-08-03T05:34:35.431Z,19.37
2022-08-03T05:35:55.881Z,19.35
2022-08-03T05:37:00.324Z,19.41
2022-08-03T05:38:02.218Z,19.50
2022-08-03T05:39:03.829Z,19.52
2022-08-03T05:40:06.531Z,19.67
2022-08-03T05:41:21.124Z,19.61
2022-08-03T05:42:24.572Z,19.62
2022-08-03T05:43:26.008Z,19.70
2022-08-03T05:44:27.842Z,19.71
2022-08-03T05:45:29.312Z,19.79
2022-08-03T05:46:30.819Z,19.85
2022-08-03T05:47:32.267Z,19.89
2022-08-03T05:48:33.817Z,19.93
2022-08-03T05:49:35.442Z,20.04
2022-08-03T05:50:41.097Z,20.06
2022-08-03T05:51:44.283Z,20.12
2022-08-03T05:52:47.561Z,20.07
2022-08-03T05:53:49.610Z,20.08
2022-08-03T05:54:56.356Z,20.10
2022-08-03T05:56:03.503Z,20.21
2022-08-03T05:57:16.255Z,20.20
2022-08-03T05:58:18.004Z,20.13
2022-08-03T05:59:37.532Z,20.23
2022-08-03T06:00:39.820Z,20.20
2022-08-03T06:01:41.359Z,20.21
2022-08-03T06:02:42.904Z,20.23
2022-08-03T06:03:44.884Z,20.38
2022-08-03T06:04:46.339Z,20.40
2022-08-03T06:05:59.943Z,20.48
2022-08-03T06:07:01.668Z,20.63
2022-08-03T06:08:05.150Z,20.71
2022-08-03T06:09:06.623Z,20.74
2022-08-03T06:10:34.492Z,20.86
2022-08-03T06:11:30.276Z,20.95
2022-08-03T06:12:31.810Z,20.93
2022-08-03T06:13:33.365Z,20.96
2022-08-03T06:14:34.810Z,20.97
2022-08-03T06:15:36.251Z,20.88
2022-08-03T06:16:37.720Z,21.03
2022-08-03T06:17:46.078Z,21.19
2022-08-03T06:18:47.528Z,21.30
2022-08-03T06:19:51.434Z,21.47
2022-08-03T06:20:53.982Z,21.43
2022-08-03T06:21:56.605Z,21.37
2022-08-03T06:23:00.308Z,21.35
2022-08-03T06:24:04.383Z,21.67
2022-08-03T06:25:12.848Z,21.72
2022-08-03T06:26:14.529Z,21.77
2022-08-03T06:27:16.500Z,21.91
2022-08-03T06:28:52.297Z,21.83
2022-08-03T06:29:39.439Z,21.93
2022-08-03T06:30:41.174Z,21.94
2022-08-03T06:31:42.648Z,22.15
2022-08-03T06:32:44.367Z,22.14
2022-08-03T06:34:32.990Z,22.30
2022-08-03T06:35:15.150Z,22.49
2022-08-03T06:36:16.658Z,22.95
2022-08-03T06:37:18.102Z,23.05
2022-08-03T06:38:19.549Z,22.87
2022-08-03T06:39:23.476Z,22.96
2022-08-03T06:40:25.456Z,23.25
2022-08-03T06:41:27.491Z,23.38
2022-08-03T06:42:28.958Z,23.19
2022-08-03T06:43:30.398Z,23.69
2022-08-03T06:44:37.397Z,23.92
2022-08-03T06:45:38.845Z,23.76
2022-08-03T06:46:40.416Z,24.10
2022-08-03T06:47:41.873Z,24.21
2022-08-03T06:48:46.360Z,24.50
2022-08-03T06:50:16.233Z,24.67
2022-08-03T06:51:09.133Z,24.75
2022-08-03T06:52:10.565Z,24.57
2022-08-03T06:53:21.203Z,24.37
2022-08-03T06:54:24.326Z,24.71
2022-08-03T06:55:25.853Z,25.21
2022-08-03T06:56:27.279Z,25.34
2022-08-03T06:57:28.755Z,25.57
2022-08-03T06:58:30.214Z,25.66
2022-08-03T07:00:09.354Z,25.61
2022-08-03T07:00:53.372Z,25.27
2022-08-03T07:01:54.862Z,25.48
2022-08-03T07:02:58.405Z,25.39
2022-08-03T07:04:00.147Z,25.51
2022-08-03T07:05:01.598Z,25.58
2022-08-03T07:06:03.487Z,25.70
2022-08-03T07:07:05.018Z,25.63
2022-08-03T07:08:06.505Z,25.85
2022-08-03T07:09:07.943Z,25.84
2022-08-03T07:10:10.861Z,25.64
2022-08-03T07:11:12.313Z,26.17
2022-08-03T07:12:13.813Z,26.07
2022-08-03T07:13:15.272Z,26.17
2022-08-03T07:14:16.761Z,25.48
2022-08-03T07:15:20.175Z,25.65
2022-08-03T07:16:21.789Z,26.06
2022-08-03T07:17:23.243Z,26.33
2022-08-03T07:18:29.621Z,26.35
2022-08-03T07:19:31.482Z,26.52
2022-08-03T07:20:33.214Z,26.65
2022-08-03T07:21:34.671Z,26.73
2022-08-03T07:22:36.129Z,26.89
2022-08-03T07:23:37.581Z,26.64
2022-08-03T07:24:39.043Z,26.09
2022-08-03T07:25:41.842Z,26.14
2022-08-03T07:26:43.310Z,26.65
2022-08-03T07:27:51.679Z,26.58
2022-08-03T07:28:53.322Z,26.34
2022-08-03T07:29:54.829Z,26.52
2022-08-03T07:30:56.346Z,26.44
2022-08-03T07:31:58.063Z,26.13
2022-08-03T07:32:59.599Z,25.98
2022-08-03T07:34:01.078Z,26.02
2022-08-03T07:35:03.047Z,26.08
2022-08-03T07:36:10.331Z,25.62
2022-08-03T07:37:11.799Z,25.83
2022-08-03T07:38:13.240Z,25.73
2022-08-03T07:39:17.880Z,26.09
2022-08-03T07:40:19.692Z,26.52
2022-08-03T07:41:22.469Z,26.70
2022-08-03T07:42:23.914Z,26.70
2022-08-03T07:43:25.393Z,26.48
2022-08-03T07:44:26.852Z,26.33
2022-08-03T07:45:29.529Z,26.60
2022-08-03T07:46:30.985Z,27.00
2022-08-03T07:47:35.530Z,26.50
2022-08-03T07:48:37.522Z,26.63
2022-08-03T07:49:40.422Z,26.52
2022-08-03T07:50:41.920Z,26.43
2022-08-03T07:51:43.422Z,26.75
2022-08-03T07:52:44.947Z,26.36
2022-08-03T07:53:48.028Z,26.80
2022-08-03T07:54:49.835Z,26.66
2022-08-03T07:55:51.345Z,26.57
2022-08-03T07:56:54.131Z,25.90
2022-08-03T07:58:03.638Z,26.23
2022-08-03T07:59:05.109Z,26.41
2022-08-03T08:00:14.132Z,26.10
2022-08-03T08:01:15.596Z,26.38
2022-08-03T08:02:17.351Z,26.00
2022-08-03T08:03:19.297Z,26.46
2022-08-03T08:04:20.734Z,26.81
2022-08-03T08:05:22.179Z,26.93
2022-08-03T08:06:23.630Z,26.78
2022-08-03T08:07:25.109Z,26.40
2022-08-03T08:08:26.758Z,26.41
2022-08-03T08:09:28.261Z,26.51
2022-08-03T08:10:31.175Z,27.03
2022-08-03T08:11:34.860Z,27.38
2022-08-03T08:12:41.587Z,27.18
2022-08-03T08:13:43.049Z,26.57
2022-08-03T08:14:44.499Z,26.86
2022-08-03T08:15:45.962Z,26.52
2022-08-03T08:16:48.742Z,26.54
2022-08-03T08:17:52.205Z,26.79
2022-08-03T08:18:53.699Z,26.78
2022-08-03T08:19:55.146Z,26.98
2022-08-03T08:20:56.741Z,26.77
2022-08-03T08:22:02.418Z,26.93
2022-08-03T08:23:32.591Z,27.02
2022-08-03T08:24:27.792Z,27.05
2022-08-03T08:25:30.414Z,26.89
2022-08-03T08:26:31.895Z,27.02
2022-08-03T08:28:30.890Z,27.24
2022-08-03T08:28:56.003Z,27.55
2022-08-03T08:30:00.610Z,27.54
2022-08-03T08:31:06.312Z,27.58
2022-08-03T08:32:07.757Z,27.74
2022-08-03T08:33:15.722Z,27.50
2022-08-03T08:34:25.095Z,28.06
2022-08-03T08:35:26.541Z,28.10
2022-08-03T08:36:28.057Z,27.68
2022-08-03T08:37:29.492Z,27.49
2022-08-03T08:38:30.925Z,27.85
2022-08-03T08:39:32.361Z,28.02
2022-08-03T08:40:34.018Z,27.76
2022-08-03T08:41:35.514Z,27.93
2022-08-03T08:42:37.544Z,28.52
2022-08-03T08:43:39.029Z,28.58
2022-08-03T08:44:41.842Z,28.61
2022-08-03T08:45:44.826Z,28.48
2022-08-03T08:46:47.506Z,28.42
2022-08-03T08:47:51.766Z,28.40
2022-08-03T08:48:54.857Z,28.41
2022-08-03T08:50:09.801Z,28.39
2022-08-03T08:51:12.741Z,28.54
2022-08-03T08:52:25.153Z,28.26
2022-08-03T08:53:35.667Z,28.35
2022-08-03T08:54:39.437Z,28.04
2022-08-03T08:55:58.545Z,28.44
2022-08-03T08:57:06.665Z,28.36
2022-08-03T08:58:21.469Z,28.18
2022-08-03T08:59:24.038Z,28.37
2022-08-03T09:00:26.804Z,28.44
2022-08-03T09:01:28.635Z,28.60
2022-08-03T09:02:30.945Z,28.56
2022-08-03T09:03:33.019Z,28.95
2022-08-03T09:04:34.653Z,29.22
2022-08-03T09:05:55.311Z,28.47
2022-08-03T09:07:17.987Z,28.47
2022-08-03T09:08:19.193Z,28.59
2022-08-03T09:10:00.367Z,28.80
2022-08-03T09:10:42.066Z,28.86
2022-08-03T09:12:01.003Z,28.91
2022-08-03T09:13:05.014Z,28.59
2022-08-03T09:14:07.032Z,28.68
2022-08-03T09:15:21.485Z,28.23
2022-08-03T09:16:24.224Z,28.34
2022-08-03T09:17:39.310Z,28.46
2022-08-03T09:18:42.245Z,28.26
2022-08-03T09:20:03.970Z,28.02
2022-08-03T09:21:33.884Z,28.61
2022-08-03T09:22:36.137Z,28.74
2022-08-03T09:24:01.475Z,28.78
2022-08-03T09:26:29.250Z,28.65
2022-08-03T09:27:42.106Z,28.84
2022-08-03T09:28:58.111Z,28.87
2022-08-03T09:30:01.937Z,28.83
2022-08-03T09:31:03.397Z,29.01
2022-08-03T09:32:06.514Z,28.34
2022-08-03T09:33:09.614Z,28.68
2022-08-03T09:34:12.973Z,29.02
2022-08-03T09:35:14.765Z,28.74
2022-08-03T09:36:36.311Z,28.81
2022-08-03T09:38:12.787Z,29.03
2022-08-03T09:39:01.003Z,28.97
2022-08-03T09:40:02.681Z,29.10
2022-08-03T09:41:17.703Z,29.24
2022-08-03T09:42:23.752Z,29.26
2022-08-03T09:43:25.642Z,29.46
2022-08-03T09:44:34.045Z,28.92
2022-08-03T09:45:36.257Z,28.27
2022-08-03T09:46:51.099Z,28.66
2022-08-03T09:47:53.993Z,29.10
2022-08-03T09:49:11.473Z,29.24
2022-08-03T09:50:13.590Z,28.90
2022-08-03T09:52:30.226Z,29.35
2022-08-03T09:52:50.210Z,29.23
2022-08-03T09:53:57.231Z,29.23
2022-08-03T09:55:01.952Z,28.85
2022-08-03T09:56:35.118Z,29.44
2022-08-03T09:57:27.341Z,29.66
2022-08-03T09:58:30.313Z,29.32
2022-08-03T09:59:33.537Z,28.81
2022-08-03T10:00:53.017Z,28.26
2022-08-03T10:01:55.714Z,28.39
2022-08-03T10:03:04.159Z,28.12
2022-08-03T10:04:05.702Z,27.97
2022-08-03T10:05:09.619Z,27.95
2022-08-03T10:06:18.292Z,27.76
2022-08-03T10:07:21.276Z,28.28
2022-08-03T10:08:23.198Z,28.58
2022-08-03T10:09:24.628Z,28.37
2022-08-03T10:10:29.896Z,28.95
2022-08-03T10:11:40.877Z,29.04
2022-08-03T10:12:44.393Z,28.90
2022-08-03T10:13:47.550Z,28.62
2022-08-03T10:14:49.010Z,29.18
2022-08-03T10:16:21.865Z,29.47
2022-08-03T10:17:12.783Z,29.18
2022-08-03T10:18:15.749Z,29.02
2022-08-03T10:19:17.535Z,29.60
2022-08-03T10:20:19.205Z,29.33
2022-08-03T10:21:21.337Z,29.44
2022-08-03T10:22:23.994Z,29.87
2022-08-03T10:23:26.179Z,29.77
2022-08-03T10:24:30.079Z,29.51
2022-08-03T10:25:34.922Z,29.20
2022-08-03T10:26:38.855Z,29.74
2022-08-03T10:27:53.085Z,29.33
2022-08-03T10:28:59.283Z,29.22
2022-08-03T10:30:02.195Z,28.85
2022-08-03T10:31:05.306Z,29.20
2022-08-03T10:32:13.667Z,29.35
2022-08-03T10:33:49.582Z,29.83
2022-08-03T10:34:44.379Z,29.85
2022-08-03T10:35:47.461Z,29.64
2022-08-03T10:36:49.733Z,29.42
2022-08-03T10:37:56.403Z,29.52
2022-08-03T10:39:00.781Z,29.55
2022-08-03T10:40:03.333Z,29.58
2022-08-03T10:41:06.404Z,29.55
2022-08-03T10:42:18.769Z,29.08
2022-08-03T10:43:25.542Z,29.65
2022-08-03T10:44:33.164Z,29.28
2022-08-03T10:45:39.069Z,29.82
2022-08-03T10:46:45.013Z,30.15
2022-08-03T10:47:48.268Z,29.71
2022-08-03T10:48:52.070Z,29.83
2022-08-03T10:49:53.673Z,29.42
2022-08-03T10:50:55.598Z,28.88
2022-08-03T10:51:57.264Z,29.12
2022-08-03T10:53:02.045Z,29.13
2022-08-03T10:54:05.564Z,28.91
2022-08-03T10:55:31.914Z,28.93
2022-08-03T10:56:48.034Z,28.65
2022-08-03T10:57:58.295Z,28.91
2022-08-03T10:59:00.163Z,28.89
2022-08-03T11:00:06.508Z,29.15
2022-08-03T11:01:09.606Z,28.96
2022-08-03T11:02:11.546Z,29.34
2022-08-03T11:03:13.881Z,29.44
2022-08-03T11:04:18.264Z,29.74
2022-08-03T11:05:26.992Z,30.04
2022-08-03T11:06:28.767Z,29.70
2022-08-03T11:07:39.184Z,29.51
2022-08-03T11:08:41.017Z,29.53
2022-08-03T11:09:43.484Z,29.40
2022-08-03T11:10:45.177Z,29.13
2022-08-03T11:11:48.443Z,28.94
2022-08-03T11:12:50.153Z,29.06
2022-08-03T11:14:00.735Z,29.06
2022-08-03T11:15:05.498Z,29.00
2022-08-03T11:16:22.030Z,28.80
2022-08-03T11:17:24.074Z,28.77
2022-08-03T11:18:26.979Z,28.93
2022-08-03T11:19:57.845Z,29.43
2022-08-03T11:21:00.539Z,29.78
2022-08-03T11:22:02.096Z,29.77
2022-08-03T11:23:03.653Z,29.66
2022-08-03T11:24:06.761Z,29.47
2022-08-03T11:25:08.712Z,29.62
2022-08-03T11:26:33.553Z,29.07
2022-08-03T11:27:36.763Z,29.12
2022-08-03T11:28:40.035Z,29.31
2022-08-03T11:29:55.182Z,28.92
2022-08-03T11:30:56.704Z,29.02
2022-08-03T11:31:58.499Z,28.89
2022-08-03T11:33:00.387Z,29.29
2022-08-03T11:34:05.514Z,29.38
2022-08-03T11:35:09.145Z,29.28
2022-08-03T11:36:10.612Z,29.32
2022-08-03T11:37:22.639Z,29.49
2022-08-03T11:38:24.571Z,29.31
2022-08-03T11:39:38.146Z,29.43
2022-08-03T11:40:42.929Z,28.96
2022-08-03T11:41:45.112Z,29.39
2022-08-03T11:42:46.926Z,29.26
2022-08-03T11:43:48.356Z,28.65
2022-08-03T11:44:50.544Z,28.77
2022-08-03T11:45:58.575Z,28.79
2022-08-03T11:47:00.697Z,29.15
2022-08-03T11:48:14.313Z,29.02
2022-08-03T11:49:20.908Z,29.08
2022-08-03T11:50:24.192Z,29.12
2022-08-03T11:51:27.609Z,29.06
2022-08-03T11:52:35.398Z,29.04
2022-08-03T11:53:42.201Z,29.16
2022-08-03T11:54:43.866Z,29.01
2022-08-03T11:55:47.453Z,28.82
2022-08-03T11:56:50.222Z,28.81
2022-08-03T11:59:10.743Z,28.69
2022-08-03T11:59:20.749Z,29.01
2022-08-03T12:00:25.979Z,28.92
2022-08-03T12:01:27.631Z,29.15
2022-08-03T12:02:29.106Z,29.33
2022-08-03T12:03:33.130Z,29.47
2022-08-03T12:04:49.757Z,29.66
2022-08-03T12:05:54.813Z,29.58
2022-08-03T12:06:59.923Z,29.77
2022-08-03T12:08:03.495Z,29.69
2022-08-03T12:09:15.571Z,30.00
2022-08-03T12:10:17.257Z,29.90
2022-08-03T12:11:18.720Z,29.59
2022-08-03T12:12:20.226Z,29.59
2022-08-03T12:14:44.636Z,29.25
2022-08-03T12:14:52.127Z,28.96
2022-08-03T12:15:55.470Z,29.05
2022-08-03T12:16:57.012Z,29.18
2022-08-03T12:17:58.527Z,29.14
2022-08-03T12:19:01.380Z,29.36
2022-08-03T12:20:05.343Z,29.30
2022-08-03T12:21:09.870Z,28.95
2022-08-03T12:22:11.370Z,28.94
2022-08-03T12:23:13.137Z,28.67
2022-08-03T12:24:14.837Z,28.82
2022-08-03T12:25:38.581Z,29.13
2022-08-03T12:26:44.764Z,28.89
2022-08-03T12:28:36.972Z,28.94
2022-08-03T12:29:31.250Z,28.91
2022-08-03T12:30:32.962Z,28.86
2022-08-03T12:31:36.044Z,28.70
2022-08-03T12:32:37.563Z,27.99
2022-08-03T12:33:56.261Z,28.04
2022-08-03T12:35:00.036Z,27.88
2022-08-03T12:36:06.234Z,28.24
2022-08-03T12:37:28.653Z,28.43
2022-08-03T12:38:30.772Z,28.42
2022-08-03T12:39:32.284Z,28.31
2022-08-03T12:40:33.892Z,28.69
2022-08-03T12:41:37.295Z,28.73
2022-08-03T12:42:39.687Z,28.73
2022-08-03T12:43:48.133Z,28.75
2022-08-03T12:44:49.638Z,28.73
2022-08-03T12:46:08.429Z,28.83
2022-08-03T12:47:09.875Z,28.86
2022-08-03T12:48:12.392Z,28.44
2022-08-03T12:49:15.382Z,28.21
2022-08-03T12:50:24.345Z,27.88
2022-08-03T12:51:26.202Z,28.29
2022-08-03T12:52:43.482Z,28.31
2022-08-03T12:53:52.088Z,28.52
2022-08-03T12:54:57.950Z,28.44
2022-08-03T12:56:05.874Z,28.43
2022-08-03T12:57:09.450Z,28.54
2022-08-03T12:58:29.926Z,28.47
2022-08-03T12:59:35.170Z,28.64
2022-08-03T13:00:37.425Z,28.82
2022-08-03T13:01:54.800Z,29.01
2022-08-03T13:03:38.427Z,29.13
2022-08-03T13:04:27.242Z,29.09
2022-08-03T13:05:31.540Z,28.94
2022-08-03T13:06:33.030Z,28.95
2022-08-03T13:07:41.725Z,28.96
2022-08-03T13:08:48.122Z,28.96
2022-08-03T13:09:51.351Z,29.14
2022-08-03T13:10:53.827Z,29.17
2022-08-03T13:12:06.081Z,29.29
2022-08-03T13:13:09.770Z,29.17
2022-08-03T13:14:15.334Z,29.40
2022-08-03T13:15:20.986Z,29.51
2022-08-03T13:16:23.012Z,29.70
2022-08-03T13:17:24.894Z,29.67
2022-08-03T13:18:26.390Z,29.40
2022-08-03T13:19:28.281Z,29.40
2022-08-03T13:20:29.849Z,29.52
2022-08-03T13:21:31.317Z,29.49
2022-08-03T13:22:32.847Z,29.37
2022-08-03T13:23:35.705Z,29.14
2022-08-03T13:24:37.251Z,29.01
2022-08-03T13:25:55.087Z,29.01
2022-08-03T13:26:57.614Z,29.30
2022-08-03T13:28:04.478Z,29.33
2022-08-03T13:29:07.394Z,29.59
2022-08-03T13:30:09.809Z,29.64
2022-08-03T13:31:11.284Z,29.76
2022-08-03T13:32:12.841Z,29.94
2022-08-03T13:33:14.344Z,29.90
2022-08-03T13:34:18.711Z,29.94
2022-08-03T13:35:24.133Z,30.00
2022-08-03T13:36:25.590Z,29.73
2022-08-03T13:37:31.652Z,29.73
2022-08-03T13:38:33.164Z,29.80
2022-08-03T13:39:57.933Z,29.47
2022-08-03T13:40:58.189Z,29.24
2022-08-03T13:41:59.653Z,29.33
2022-08-03T13:43:01.111Z,29.22
2022-08-03T13:44:26.678Z,29.29
2022-08-03T13:45:23.947Z,29.33
2022-08-03T13:46:25.270Z,29.33
2022-08-03T13:47:27.178Z,29.24
2022-08-03T13:48:36.219Z,29.32
2022-08-03T13:49:38.955Z,29.48
2022-08-03T13:50:43.067Z,29.47
2022-08-03T13:51:44.805Z,29.59
2022-08-03T13:52:46.345Z,29.22
2022-08-03T13:53:47.791Z,29.03
2022-08-03T13:54:50.547Z,29.38
2022-08-03T13:55:52.041Z,29.58
2022-08-03T13:56:56.668Z,29.73
2022-08-03T13:58:06.234Z,29.64
2022-08-03T13:59:08.581Z,29.31
2022-08-03T14:00:11.184Z,29.22
2022-08-03T14:01:12.797Z,28.89
2022-08-03T14:02:14.255Z,29.08